sensor_id;sensor_type;location;lat;lon;timestamp;temperature;humidity
10175;DHT22;18221;38.704;0.152;2024-03-06T00:01:04;12.20;99.90
10175;DHT22;18221;38.704;0.152;2024-03-06T00:03:32;12.20;99.90
10175;DHT22;18221;38.704;0.152;2024-03-06T00:06:02;12.20;99.90
10175;DHT22;18221;38.704;0.152;2024-03-06T00:08:30;12.20;99.90
10175;DHT22;18221;38.704;0.152;2024-03-06T00:10:58;12.10;99.90
10175;DHT22;18221;38.704;0.152;2024-03-06T00:13:26;12.10;99.90
10175;DHT22;18221;38.704;0.152;2024-03-06T00:15:54;12.10;99.90
10175;DHT22;18221;38.704;0.152;2024-03-06T00:18:22;12.10;99.90
10175;DHT22;18221;38.704;0.152;2024-03-06T00:20:50;12.10;99.90
10175;DHT22;18221;38.704;0.152;2024-03-06T00:23:19;12.10;99.90
10175;DHT22;18221;38.704;0.152;2024-03-06T00:25:47;12.00;99.90
10175;DHT22;18221;38.704;0.152;2024-03-06T00:28:14;12.00;99.90
10175;DHT22;18221;38.704;0.152;2024-03-06T00:30:42;12.30;99.90
10175;DHT22;18221;38.704;0.152;2024-03-06T00:33:10;12.00;99.90
10175;DHT22;18221;38.704;0.152;2024-03-06T00:35:38;12.00;99.90
10175;DHT22;18221;38.704;0.152;2024-03-06T00:38:05;12.00;99.90
10175;DHT22;18221;38.704;0.152;2024-03-06T00:40:34;12.00;99.90
10175;DHT22;18221;38.704;0.152;2024-03-06T00:43:02;12.00;99.90
10175;DHT22;18221;38.704;0.152;2024-03-06T00:45:30;11.90;99.90
10175;DHT22;18221;38.704;0.152;2024-03-06T00:47:58;11.90;99.90
10175;DHT22;18221;38.704;0.152;2024-03-06T01:00:49;11.80;99.90
10175;DHT22;18221;38.704;0.152;2024-03-06T01:03:17;11.80;99.90
10175;DHT22;18221;38.704;0.152;2024-03-06T01:05:45;11.80;99.90
10175;DHT22;18221;38.704;0.152;2024-03-06T01:08:13;11.80;99.90
10175;DHT22;18221;38.704;0.152;2024-03-06T01:10:43;11.80;99.90
10175;DHT22;18221;38.704;0.152;2024-03-06T01:13:10;11.80;99.90
10175;DHT22;18221;38.704;0.152;2024-03-06T01:15:38;11.80;99.90
10175;DHT22;18221;38.704;0.152;2024-03-06T01:18:07;11.80;99.90
10175;DHT22;18221;38.704;0.152;2024-03-06T01:25:40;11.80;99.90
10175;DHT22;18221;38.704;0.152;2024-03-06T01:28:07;11.80;99.90
10175;DHT22;18221;38.704;0.152;2024-03-06T01:30:34;11.70;99.90
10175;DHT22;18221;38.704;0.152;2024-03-06T01:33:01;11.90;99.90
10175;DHT22;18221;38.704;0.152;2024-03-06T01:35:29;11.90;99.90
10175;DHT22;18221;38.704;0.152;2024-03-06T01:37:56;12.00;99.90
10175;DHT22;18221;38.704;0.152;2024-03-06T01:40:24;11.90;99.90
10175;DHT22;18221;38.704;0.152;2024-03-06T01:42:52;11.90;99.90
10175;DHT22;18221;38.704;0.152;2024-03-06T01:50:36;11.70;99.90
10175;DHT22;18221;38.704;0.152;2024-03-06T01:53:04;11.70;99.90
10175;DHT22;18221;38.704;0.152;2024-03-06T01:55:31;11.20;99.90
10175;DHT22;18221;38.704;0.152;2024-03-06T01:57:58;11.60;99.90
10175;DHT22;18221;38.704;0.152;2024-03-06T02:00:27;11.60;99.90
10175;DHT22;18221;38.704;0.152;2024-03-06T02:02:55;11.50;99.90
10175;DHT22;18221;38.704;0.152;2024-03-06T02:05:22;11.60;99.90
10175;DHT22;18221;38.704;0.152;2024-03-06T02:07:51;11.60;99.90
10175;DHT22;18221;38.704;0.152;2024-03-06T02:11:36;11.60;99.90
10175;DHT22;18221;38.704;0.152;2024-03-06T02:14:04;11.70;99.90
10175;DHT22;18221;38.704;0.152;2024-03-06T02:16:35;11.70;99.90
10175;DHT22;18221;38.704;0.152;2024-03-06T02:19:05;11.60;99.90
10175;DHT22;18221;38.704;0.152;2024-03-06T02:21:33;11.50;99.90
10175;DHT22;18221;38.704;0.152;2024-03-06T02:24:01;11.50;99.90
10175;DHT22;18221;38.704;0.152;2024-03-06T02:26:29;11.60;99.90
10175;DHT22;18221;38.704;0.152;2024-03-06T02:28:57;11.60;99.90
10175;DHT22;18221;38.704;0.152;2024-03-06T02:31:25;11.70;99.90
10175;DHT22;18221;38.704;0.152;2024-03-06T02:33:53;11.70;99.90
10175;DHT22;18221;38.704;0.152;2024-03-06T02:36:21;11.70;99.90
10175;DHT22;18221;38.704;0.152;2024-03-06T02:38:50;11.80;99.90
10175;DHT22;18221;38.704;0.152;2024-03-06T02:41:18;11.80;99.90
10175;DHT22;18221;38.704;0.152;2024-03-06T02:43:46;11.90;99.90
10175;DHT22;18221;38.704;0.152;2024-03-06T02:46:13;11.90;99.90
10175;DHT22;18221;38.704;0.152;2024-03-06T02:48:41;12.00;99.90
10175;DHT22;18221;38.704;0.152;2024-03-06T02:51:09;12.00;99.90
10175;DHT22;18221;38.704;0.152;2024-03-06T02:56:40;12.00;99.90
10175;DHT22;18221;38.704;0.152;2024-03-06T02:59:08;12.00;99.90
10175;DHT22;18221;38.704;0.152;2024-03-06T03:01:36;12.00;99.90
10175;DHT22;18221;38.704;0.152;2024-03-06T03:04:04;12.00;99.90
10175;DHT22;18221;38.704;0.152;2024-03-06T03:06:33;12.00;99.90
10175;DHT22;18221;38.704;0.152;2024-03-06T03:09:01;12.00;99.90
10175;DHT22;18221;38.704;0.152;2024-03-06T03:11:31;12.00;99.90
10175;DHT22;18221;38.704;0.152;2024-03-06T03:13:59;12.00;99.90
10175;DHT22;18221;38.704;0.152;2024-03-06T03:16:26;12.00;99.90
10175;DHT22;18221;38.704;0.152;2024-03-06T03:18:55;12.00;99.90
10175;DHT22;18221;38.704;0.152;2024-03-06T03:21:23;11.90;99.90
10175;DHT22;18221;38.704;0.152;2024-03-06T03:23:51;12.00;99.90
10175;DHT22;18221;38.704;0.152;2024-03-06T03:26:19;12.00;99.90
10175;DHT22;18221;38.704;0.152;2024-03-06T03:28:48;11.90;99.90
10175;DHT22;18221;38.704;0.152;2024-03-06T03:31:16;12.00;99.90
10175;DHT22;18221;38.704;0.152;2024-03-06T03:33:44;11.90;99.90
10175;DHT22;18221;38.704;0.152;2024-03-06T03:36:11;12.00;99.90
10175;DHT22;18221;38.704;0.152;2024-03-06T03:38:39;11.90;99.90
10175;DHT22;18221;38.704;0.152;2024-03-06T03:41:08;11.90;99.90
10175;DHT22;18221;38.704;0.152;2024-03-06T03:43:36;11.90;99.90
10175;DHT22;18221;38.704;0.152;2024-03-06T03:46:06;11.90;99.90
10175;DHT22;18221;38.704;0.152;2024-03-06T03:48:34;11.90;99.90
10175;DHT22;18221;38.704;0.152;2024-03-06T03:51:03;12.80;99.90
10175;DHT22;18221;38.704;0.152;2024-03-06T03:53:31;11.90;99.90
10175;DHT22;18221;38.704;0.152;2024-03-06T03:56:00;11.80;99.90
10175;DHT22;18221;38.704;0.152;2024-03-06T03:58:29;11.80;99.90
10175;DHT22;18221;38.704;0.152;2024-03-06T04:00:57;11.80;99.90
10175;DHT22;18221;38.704;0.152;2024-03-06T04:03:27;11.80;99.90
10175;DHT22;18221;38.704;0.152;2024-03-06T04:05:55;11.80;99.90
10175;DHT22;18221;38.704;0.152;2024-03-06T04:08:23;11.70;99.90
10175;DHT22;18221;38.704;0.152;2024-03-06T04:10:51;11.80;99.90
10175;DHT22;18221;38.704;0.152;2024-03-06T04:13:19;11.80;99.90
10175;DHT22;18221;38.704;0.152;2024-03-06T04:15:47;11.80;99.90
10175;DHT22;18221;38.704;0.152;2024-03-06T04:18:15;11.80;99.90
10175;DHT22;18221;38.704;0.152;2024-03-06T04:20:44;11.70;99.90
10175;DHT22;18221;38.704;0.152;2024-03-06T04:23:12;11.70;99.90
10175;DHT22;18221;38.704;0.152;2024-03-06T04:25:40;11.70;99.90
10175;DHT22;18221;38.704;0.152;2024-03-06T04:28:08;11.60;99.90
10175;DHT22;18221;38.704;0.152;2024-03-06T04:30:36;11.70;99.90
10175;DHT22;18221;38.704;0.152;2024-03-06T04:33:04;11.70;99.90
10175;DHT22;18221;38.704;0.152;2024-03-06T04:35:31;11.60;99.90
10175;DHT22;18221;38.704;0.152;2024-03-06T04:38:01;11.60;99.90
10175;DHT22;18221;38.704;0.152;2024-03-06T04:40:29;11.60;99.90
10175;DHT22;18221;38.704;0.152;2024-03-06T04:42:57;11.60;99.90
10175;DHT22;18221;38.704;0.152;2024-03-06T04:45:25;11.60;99.90
10175;DHT22;18221;38.704;0.152;2024-03-06T04:47:54;11.60;99.90
10175;DHT22;18221;38.704;0.152;2024-03-06T04:50:22;11.60;99.90
10175;DHT22;18221;38.704;0.152;2024-03-06T04:52:49;11.70;99.90
10175;DHT22;18221;38.704;0.152;2024-03-06T04:55:19;11.60;99.90
10175;DHT22;18221;38.704;0.152;2024-03-06T04:57:48;11.60;99.90
10175;DHT22;18221;38.704;0.152;2024-03-06T05:00:16;11.60;99.90
10175;DHT22;18221;38.704;0.152;2024-03-06T05:02:45;11.50;99.90
10175;DHT22;18221;38.704;0.152;2024-03-06T05:05:15;11.50;99.90
10175;DHT22;18221;38.704;0.152;2024-03-06T05:07:43;11.40;99.90
10175;DHT22;18221;38.704;0.152;2024-03-06T05:10:11;11.50;99.90
10175;DHT22;18221;38.704;0.152;2024-03-06T05:12:40;11.00;99.90
10175;DHT22;18221;38.704;0.152;2024-03-06T05:15:09;11.40;99.90
10175;DHT22;18221;38.704;0.152;2024-03-06T05:17:37;11.40;99.90
10175;DHT22;18221;38.704;0.152;2024-03-06T05:20:06;11.30;99.90
10175;DHT22;18221;38.704;0.152;2024-03-06T05:22:35;11.20;99.90
10175;DHT22;18221;38.704;0.152;2024-03-06T05:25:03;11.20;99.90
10175;DHT22;18221;38.704;0.152;2024-03-06T05:27:31;11.20;99.90
10175;DHT22;18221;38.704;0.152;2024-03-06T05:30:00;11.20;99.90
10175;DHT22;18221;38.704;0.152;2024-03-06T05:32:30;11.10;99.90
10175;DHT22;18221;38.704;0.152;2024-03-06T05:34:58;11.10;99.90
10175;DHT22;18221;38.704;0.152;2024-03-06T05:37:25;11.10;99.90
10175;DHT22;18221;38.704;0.152;2024-03-06T05:39:54;11.10;99.90
10175;DHT22;18221;38.704;0.152;2024-03-06T05:42:22;11.10;99.90
10175;DHT22;18221;38.704;0.152;2024-03-06T05:44:50;11.10;99.90
10175;DHT22;18221;38.704;0.152;2024-03-06T05:47:22;11.10;99.90
10175;DHT22;18221;38.704;0.152;2024-03-06T05:49:49;11.00;99.90
10175;DHT22;18221;38.704;0.152;2024-03-06T05:52:17;11.00;99.90
10175;DHT22;18221;38.704;0.152;2024-03-06T05:54:45;11.00;99.90
10175;DHT22;18221;38.704;0.152;2024-03-06T05:57:13;11.00;99.90
10175;DHT22;18221;38.704;0.152;2024-03-06T05:59:41;11.00;99.90
10175;DHT22;18221;38.704;0.152;2024-03-06T06:02:08;11.00;99.90
10175;DHT22;18221;38.704;0.152;2024-03-06T06:04:38;11.00;99.90
10175;DHT22;18221;38.704;0.152;2024-03-06T06:07:05;11.00;99.90
10175;DHT22;18221;38.704;0.152;2024-03-06T06:09:33;11.00;99.90
10175;DHT22;18221;38.704;0.152;2024-03-06T06:12:01;11.00;99.90
10175;DHT22;18221;38.704;0.152;2024-03-06T06:14:29;11.00;99.90
10175;DHT22;18221;38.704;0.152;2024-03-06T06:16:57;11.00;99.90
10175;DHT22;18221;38.704;0.152;2024-03-06T06:19:25;11.00;99.90
10175;DHT22;18221;38.704;0.152;2024-03-06T06:21:54;11.00;99.90
10175;DHT22;18221;38.704;0.152;2024-03-06T06:24:22;10.90;99.90
10175;DHT22;18221;38.704;0.152;2024-03-06T06:26:50;10.90;99.90
10175;DHT22;18221;38.704;0.152;2024-03-06T06:29:18;10.90;99.90
10175;DHT22;18221;38.704;0.152;2024-03-06T06:31:46;10.90;99.90
10175;DHT22;18221;38.704;0.152;2024-03-06T06:34:13;10.90;99.90
10175;DHT22;18221;38.704;0.152;2024-03-06T06:36:45;11.00;99.90
10175;DHT22;18221;38.704;0.152;2024-03-06T06:39:14;11.00;99.90
10175;DHT22;18221;38.704;0.152;2024-03-06T06:41:42;11.00;99.90
10175;DHT22;18221;38.704;0.152;2024-03-06T06:44:10;11.10;99.90
10175;DHT22;18221;38.704;0.152;2024-03-06T06:46:39;11.10;99.90
10175;DHT22;18221;38.704;0.152;2024-03-06T06:49:07;11.10;99.90
10175;DHT22;18221;38.704;0.152;2024-03-06T06:51:34;11.20;99.90
10175;DHT22;18221;38.704;0.152;2024-03-06T06:54:03;11.30;99.90
10175;DHT22;18221;38.704;0.152;2024-03-06T06:56:33;11.20;99.90
10175;DHT22;18221;38.704;0.152;2024-03-06T06:59:01;11.40;99.90
10175;DHT22;18221;38.704;0.152;2024-03-06T07:01:29;11.50;99.90
10175;DHT22;18221;38.704;0.152;2024-03-06T07:03:58;11.60;99.90
10175;DHT22;18221;38.704;0.152;2024-03-06T07:06:26;11.60;99.90
10175;DHT22;18221;38.704;0.152;2024-03-06T07:08:54;11.70;99.90
10175;DHT22;18221;38.704;0.152;2024-03-06T07:11:21;11.70;99.90
10175;DHT22;18221;38.704;0.152;2024-03-06T07:13:51;11.70;99.90
10175;DHT22;18221;38.704;0.152;2024-03-06T07:16:19;11.80;99.90
10175;DHT22;18221;38.704;0.152;2024-03-06T07:18:47;11.80;99.90
10175;DHT22;18221;38.704;0.152;2024-03-06T07:21:14;11.80;99.90
10175;DHT22;18221;38.704;0.152;2024-03-06T07:23:43;11.80;99.90
10175;DHT22;18221;38.704;0.152;2024-03-06T07:26:11;11.90;99.90
10175;DHT22;18221;38.704;0.152;2024-03-06T07:28:39;12.00;99.90
10175;DHT22;18221;38.704;0.152;2024-03-06T07:31:08;12.00;99.90
10175;DHT22;18221;38.704;0.152;2024-03-06T07:33:36;12.00;99.90
10175;DHT22;18221;38.704;0.152;2024-03-06T07:36:05;12.10;99.90
10175;DHT22;18221;38.704;0.152;2024-03-06T07:38:33;12.10;99.90
10175;DHT22;18221;38.704;0.152;2024-03-06T07:41:00;12.10;99.90
10175;DHT22;18221;38.704;0.152;2024-03-06T07:43:28;12.20;99.90
10175;DHT22;18221;38.704;0.152;2024-03-06T07:45:56;12.20;99.90
10175;DHT22;18221;38.704;0.152;2024-03-06T07:48:26;12.20;99.90
10175;DHT22;18221;38.704;0.152;2024-03-06T07:50:53;12.30;99.90
10175;DHT22;18221;38.704;0.152;2024-03-06T07:53:21;12.30;99.90
10175;DHT22;18221;38.704;0.152;2024-03-06T07:55:49;12.40;99.90
10175;DHT22;18221;38.704;0.152;2024-03-06T07:58:17;12.40;99.90
10175;DHT22;18221;38.704;0.152;2024-03-06T08:00:47;12.50;99.90
10175;DHT22;18221;38.704;0.152;2024-03-06T08:03:15;12.60;99.90
10175;DHT22;18221;38.704;0.152;2024-03-06T08:05:45;12.60;99.90
10175;DHT22;18221;38.704;0.152;2024-03-06T08:08:12;12.70;99.90
10175;DHT22;18221;38.704;0.152;2024-03-06T08:10:40;12.80;99.90
10175;DHT22;18221;38.704;0.152;2024-03-06T08:13:08;12.90;99.90
10175;DHT22;18221;38.704;0.152;2024-03-06T08:15:36;13.00;99.90
10175;DHT22;18221;38.704;0.152;2024-03-06T08:18:04;13.00;99.90
10175;DHT22;18221;38.704;0.152;2024-03-06T08:20:32;13.10;99.90
10175;DHT22;18221;38.704;0.152;2024-03-06T08:23:01;13.10;99.90
10175;DHT22;18221;38.704;0.152;2024-03-06T08:25:29;13.20;99.90
10175;DHT22;18221;38.704;0.152;2024-03-06T08:27:58;13.20;99.90
10175;DHT22;18221;38.704;0.152;2024-03-06T08:30:26;13.10;99.90
10175;DHT22;18221;38.704;0.152;2024-03-06T08:32:56;13.10;99.90
10175;DHT22;18221;38.704;0.152;2024-03-06T08:35:24;13.10;99.90
10175;DHT22;18221;38.704;0.152;2024-03-06T08:37:52;13.20;99.90
10175;DHT22;18221;38.704;0.152;2024-03-06T08:40:22;13.30;99.90
10175;DHT22;18221;38.704;0.152;2024-03-06T08:42:51;13.30;99.90
10175;DHT22;18221;38.704;0.152;2024-03-06T08:45:19;13.40;99.90
10175;DHT22;18221;38.704;0.152;2024-03-06T08:47:49;13.50;99.90
10175;DHT22;18221;38.704;0.152;2024-03-06T08:50:20;13.50;99.90
10175;DHT22;18221;38.704;0.152;2024-03-06T08:52:48;13.60;99.90
10175;DHT22;18221;38.704;0.152;2024-03-06T08:55:17;13.70;99.90
10175;DHT22;18221;38.704;0.152;2024-03-06T08:57:46;13.70;99.90
10175;DHT22;18221;38.704;0.152;2024-03-06T09:00:16;13.80;99.90
10175;DHT22;18221;38.704;0.152;2024-03-06T09:02:45;13.70;99.90
10175;DHT22;18221;38.704;0.152;2024-03-06T09:05:13;13.70;99.90
10175;DHT22;18221;38.704;0.152;2024-03-06T09:07:40;13.80;99.90
10175;DHT22;18221;38.704;0.152;2024-03-06T09:10:09;13.80;99.90
10175;DHT22;18221;38.704;0.152;2024-03-06T09:12:38;13.80;99.90
10175;DHT22;18221;38.704;0.152;2024-03-06T09:15:08;13.90;99.90
10175;DHT22;18221;38.704;0.152;2024-03-06T09:17:37;14.00;99.90
10175;DHT22;18221;38.704;0.152;2024-03-06T09:20:06;14.10;99.90
10175;DHT22;18221;38.704;0.152;2024-03-06T09:22:37;14.20;99.90
10175;DHT22;18221;38.704;0.152;2024-03-06T09:25:06;14.30;99.90
10175;DHT22;18221;38.704;0.152;2024-03-06T09:27:34;14.30;99.90
10175;DHT22;18221;38.704;0.152;2024-03-06T09:30:02;14.40;99.90
10175;DHT22;18221;38.704;0.152;2024-03-06T09:32:32;14.40;99.90
10175;DHT22;18221;38.704;0.152;2024-03-06T09:35:00;14.40;99.90
10175;DHT22;18221;38.704;0.152;2024-03-06T09:37:28;14.40;99.90
10175;DHT22;18221;38.704;0.152;2024-03-06T09:39:56;14.40;99.90
10175;DHT22;18221;38.704;0.152;2024-03-06T09:42:24;14.50;99.90
10175;DHT22;18221;38.704;0.152;2024-03-06T09:44:52;14.60;99.90
10175;DHT22;18221;38.704;0.152;2024-03-06T09:47:22;14.70;99.90
10175;DHT22;18221;38.704;0.152;2024-03-06T09:49:53;14.60;99.90
10175;DHT22;18221;38.704;0.152;2024-03-06T09:52:21;14.60;99.90
10175;DHT22;18221;38.704;0.152;2024-03-06T09:54:53;14.50;99.90
10175;DHT22;18221;38.704;0.152;2024-03-06T09:57:21;14.50;99.90
10175;DHT22;18221;38.704;0.152;2024-03-06T09:59:49;14.40;99.90
10175;DHT22;18221;38.704;0.152;2024-03-06T10:02:28;14.40;99.90
10175;DHT22;18221;38.704;0.152;2024-03-06T10:05:05;14.40;99.90
10175;DHT22;18221;38.704;0.152;2024-03-06T10:07:47;14.40;99.90
10175;DHT22;18221;38.704;0.152;2024-03-06T10:10:15;14.60;99.90
10175;DHT22;18221;38.704;0.152;2024-03-06T10:12:44;14.70;99.90
10175;DHT22;18221;38.704;0.152;2024-03-06T10:15:14;14.80;99.90
10175;DHT22;18221;38.704;0.152;2024-03-06T10:17:41;14.80;99.90
10175;DHT22;18221;38.704;0.152;2024-03-06T10:20:19;14.90;99.90
10175;DHT22;18221;38.704;0.152;2024-03-06T10:22:53;14.90;99.90
10175;DHT22;18221;38.704;0.152;2024-03-06T10:25:22;14.80;99.90
10175;DHT22;18221;38.704;0.152;2024-03-06T10:28:06;14.80;99.90
10175;DHT22;18221;38.704;0.152;2024-03-06T10:30:36;14.90;99.90
10175;DHT22;18221;38.704;0.152;2024-03-06T10:33:08;15.00;99.90
10175;DHT22;18221;38.704;0.152;2024-03-06T10:35:39;14.90;99.90
10175;DHT22;18221;38.704;0.152;2024-03-06T10:38:08;15.00;99.90
10175;DHT22;18221;38.704;0.152;2024-03-06T10:40:38;12.90;99.90
10175;DHT22;18221;38.704;0.152;2024-03-06T10:43:08;15.10;99.90
10175;DHT22;18221;38.704;0.152;2024-03-06T10:45:41;15.10;99.90
10175;DHT22;18221;38.704;0.152;2024-03-06T10:48:14;15.20;99.90
10175;DHT22;18221;38.704;0.152;2024-03-06T10:50:45;15.30;99.90
10175;DHT22;18221;38.704;0.152;2024-03-06T10:53:15;15.20;99.90
10175;DHT22;18221;38.704;0.152;2024-03-06T10:55:44;15.10;99.90
10175;DHT22;18221;38.704;0.152;2024-03-06T10:58:13;15.10;99.90
10175;DHT22;18221;38.704;0.152;2024-03-06T11:00:44;15.10;99.90
10175;DHT22;18221;38.704;0.152;2024-03-06T11:03:13;15.20;99.90
10175;DHT22;18221;38.704;0.152;2024-03-06T11:05:45;15.30;99.90
10175;DHT22;18221;38.704;0.152;2024-03-06T11:08:16;15.30;99.90
10175;DHT22;18221;38.704;0.152;2024-03-06T11:10:45;15.30;99.90
10175;DHT22;18221;38.704;0.152;2024-03-06T11:13:21;15.50;99.90
10175;DHT22;18221;38.704;0.152;2024-03-06T11:15:51;15.60;99.90
10175;DHT22;18221;38.704;0.152;2024-03-06T11:18:41;15.40;99.90
10175;DHT22;18221;38.704;0.152;2024-03-06T11:21:30;15.40;99.90
10175;DHT22;18221;38.704;0.152;2024-03-06T11:24:18;15.40;99.90
10175;DHT22;18221;38.704;0.152;2024-03-06T11:26:49;15.40;99.90
10175;DHT22;18221;38.704;0.152;2024-03-06T11:29:18;15.40;99.90
10175;DHT22;18221;38.704;0.152;2024-03-06T11:32:00;15.40;99.90
10175;DHT22;18221;38.704;0.152;2024-03-06T11:34:29;15.40;99.90
10175;DHT22;18221;38.704;0.152;2024-03-06T11:36:59;15.30;99.90
10175;DHT22;18221;38.704;0.152;2024-03-06T11:39:33;15.40;99.90
10175;DHT22;18221;38.704;0.152;2024-03-06T11:42:02;15.30;99.90
10175;DHT22;18221;38.704;0.152;2024-03-06T11:44:34;15.20;99.90
10175;DHT22;18221;38.704;0.152;2024-03-06T11:47:03;15.20;99.90
10175;DHT22;18221;38.704;0.152;2024-03-06T11:49:34;15.20;99.90
10175;DHT22;18221;38.704;0.152;2024-03-06T11:52:06;15.20;99.90
10175;DHT22;18221;38.704;0.152;2024-03-06T11:54:36;15.30;99.90
10175;DHT22;18221;38.704;0.152;2024-03-06T11:57:05;15.50;99.90
10175;DHT22;18221;38.704;0.152;2024-03-06T11:59:34;15.50;99.90
10175;DHT22;18221;38.704;0.152;2024-03-06T12:02:05;15.40;99.90
10175;DHT22;18221;38.704;0.152;2024-03-06T12:04:36;15.50;99.90
10175;DHT22;18221;38.704;0.152;2024-03-06T12:07:05;15.40;99.90
10175;DHT22;18221;38.704;0.152;2024-03-06T12:09:35;15.40;99.90
10175;DHT22;18221;38.704;0.152;2024-03-06T12:12:04;15.40;99.90
10175;DHT22;18221;38.704;0.152;2024-03-06T12:14:35;15.40;99.90
10175;DHT22;18221;38.704;0.152;2024-03-06T12:17:04;15.40;99.90
10175;DHT22;18221;38.704;0.152;2024-03-06T12:19:34;15.50;99.90
10175;DHT22;18221;38.704;0.152;2024-03-06T12:22:02;15.60;99.90
10175;DHT22;18221;38.704;0.152;2024-03-06T12:24:32;15.70;99.90
10175;DHT22;18221;38.704;0.152;2024-03-06T12:27:00;15.80;99.90
10175;DHT22;18221;38.704;0.152;2024-03-06T12:29:29;15.70;99.90
10175;DHT22;18221;38.704;0.152;2024-03-06T12:31:59;15.70;99.90
10175;DHT22;18221;38.704;0.152;2024-03-06T12:34:28;15.80;99.90
10175;DHT22;18221;38.704;0.152;2024-03-06T12:37:07;15.70;99.90
10175;DHT22;18221;38.704;0.152;2024-03-06T12:39:37;15.70;99.90
10175;DHT22;18221;38.704;0.152;2024-03-06T12:42:05;15.70;99.90
10175;DHT22;18221;38.704;0.152;2024-03-06T12:44:33;15.80;99.90
10175;DHT22;18221;38.704;0.152;2024-03-06T12:47:00;15.80;99.90
10175;DHT22;18221;38.704;0.152;2024-03-06T12:49:28;15.80;99.90
10175;DHT22;18221;38.704;0.152;2024-03-06T12:51:56;15.80;99.90
10175;DHT22;18221;38.704;0.152;2024-03-06T12:54:25;16.90;99.90
10175;DHT22;18221;38.704;0.152;2024-03-06T12:56:54;15.80;99.90
10175;DHT22;18221;38.704;0.152;2024-03-06T12:59:22;16.00;99.90
10175;DHT22;18221;38.704;0.152;2024-03-06T13:01:50;16.00;99.90
10175;DHT22;18221;38.704;0.152;2024-03-06T13:04:18;16.00;99.90
10175;DHT22;18221;38.704;0.152;2024-03-06T13:06:46;16.00;99.90
10175;DHT22;18221;38.704;0.152;2024-03-06T13:09:14;16.00;99.90
10175;DHT22;18221;38.704;0.152;2024-03-06T13:11:41;16.10;99.90
10175;DHT22;18221;38.704;0.152;2024-03-06T13:14:11;16.10;99.90
10175;DHT22;18221;38.704;0.152;2024-03-06T13:16:39;16.20;99.90
10175;DHT22;18221;38.704;0.152;2024-03-06T13:19:07;16.20;99.90
10175;DHT22;18221;38.704;0.152;2024-03-06T13:21:37;16.30;99.90
10175;DHT22;18221;38.704;0.152;2024-03-06T13:24:05;16.20;99.90
10175;DHT22;18221;38.704;0.152;2024-03-06T13:26:34;16.00;99.90
10175;DHT22;18221;38.704;0.152;2024-03-06T13:29:03;15.90;99.90
10175;DHT22;18221;38.704;0.152;2024-03-06T13:31:33;16.00;99.90
10175;DHT22;18221;38.704;0.152;2024-03-06T13:34:02;16.00;99.90
10175;DHT22;18221;38.704;0.152;2024-03-06T13:36:30;16.10;99.90
10175;DHT22;18221;38.704;0.152;2024-03-06T13:38:58;16.10;99.90
10175;DHT22;18221;38.704;0.152;2024-03-06T13:41:26;16.10;99.90
10175;DHT22;18221;38.704;0.152;2024-03-06T13:43:55;16.30;99.90
10175;DHT22;18221;38.704;0.152;2024-03-06T13:46:23;16.20;99.90
10175;DHT22;18221;38.704;0.152;2024-03-06T13:48:52;16.10;99.90
10175;DHT22;18221;38.704;0.152;2024-03-06T13:51:20;16.10;99.90
10175;DHT22;18221;38.704;0.152;2024-03-06T13:53:48;16.20;99.90
10175;DHT22;18221;38.704;0.152;2024-03-06T13:56:15;16.30;99.90
10175;DHT22;18221;38.704;0.152;2024-03-06T13:58:44;16.30;99.90
10175;DHT22;18221;38.704;0.152;2024-03-06T14:01:11;16.40;99.90
10175;DHT22;18221;38.704;0.152;2024-03-06T14:03:39;16.40;99.90
10175;DHT22;18221;38.704;0.152;2024-03-06T14:06:09;16.30;99.90
10175;DHT22;18221;38.704;0.152;2024-03-06T14:08:36;16.20;99.90
10175;DHT22;18221;38.704;0.152;2024-03-06T14:11:07;16.30;99.90
10175;DHT22;18221;38.704;0.152;2024-03-06T14:13:34;16.30;99.90
10175;DHT22;18221;38.704;0.152;2024-03-06T14:16:03;16.20;99.90
10175;DHT22;18221;38.704;0.152;2024-03-06T14:18:32;16.20;99.90
10175;DHT22;18221;38.704;0.152;2024-03-06T14:21:00;16.20;99.90
10175;DHT22;18221;38.704;0.152;2024-03-06T14:23:29;16.10;99.90
10175;DHT22;18221;38.704;0.152;2024-03-06T14:25:58;16.10;99.90
10175;DHT22;18221;38.704;0.152;2024-03-06T14:28:28;16.20;99.90
10175;DHT22;18221;38.704;0.152;2024-03-06T14:30:57;16.30;99.90
10175;DHT22;18221;38.704;0.152;2024-03-06T14:33:26;16.50;99.90
10175;DHT22;18221;38.704;0.152;2024-03-06T14:35:54;16.60;99.90
10175;DHT22;18221;38.704;0.152;2024-03-06T14:38:22;16.60;99.90
10175;DHT22;18221;38.704;0.152;2024-03-06T14:40:51;16.50;99.90
10175;DHT22;18221;38.704;0.152;2024-03-06T14:43:19;16.30;99.90
10175;DHT22;18221;38.704;0.152;2024-03-06T14:45:47;16.30;99.90
10175;DHT22;18221;38.704;0.152;2024-03-06T14:48:14;16.30;99.90
10175;DHT22;18221;38.704;0.152;2024-03-06T14:50:42;16.40;99.90
10175;DHT22;18221;38.704;0.152;2024-03-06T14:53:10;16.50;99.90
10175;DHT22;18221;38.704;0.152;2024-03-06T14:55:38;16.50;99.90
10175;DHT22;18221;38.704;0.152;2024-03-06T14:58:08;16.50;99.90
10175;DHT22;18221;38.704;0.152;2024-03-06T15:00:35;16.40;99.90
10175;DHT22;18221;38.704;0.152;2024-03-06T15:03:03;16.30;99.90
10175;DHT22;18221;38.704;0.152;2024-03-06T15:05:34;16.40;99.90
10175;DHT22;18221;38.704;0.152;2024-03-06T15:08:02;16.60;99.90
10175;DHT22;18221;38.704;0.152;2024-03-06T15:10:31;16.70;99.90
10175;DHT22;18221;38.704;0.152;2024-03-06T15:12:58;16.70;99.90
10175;DHT22;18221;38.704;0.152;2024-03-06T15:15:28;16.80;99.90
10175;DHT22;18221;38.704;0.152;2024-03-06T15:17:57;16.70;99.90
10175;DHT22;18221;38.704;0.152;2024-03-06T15:20:25;16.70;99.90
10175;DHT22;18221;38.704;0.152;2024-03-06T15:22:54;16.70;99.90
10175;DHT22;18221;38.704;0.152;2024-03-06T15:25:22;16.50;99.90
10175;DHT22;18221;38.704;0.152;2024-03-06T15:27:49;16.40;99.90
10175;DHT22;18221;38.704;0.152;2024-03-06T15:30:17;16.10;99.90
10175;DHT22;18221;38.704;0.152;2024-03-06T15:32:48;16.00;99.90
10175;DHT22;18221;38.704;0.152;2024-03-06T15:35:16;15.90;99.90
10175;DHT22;18221;38.704;0.152;2024-03-06T15:37:44;15.90;99.90
10175;DHT22;18221;38.704;0.152;2024-03-06T15:40:12;15.80;99.90
10175;DHT22;18221;38.704;0.152;2024-03-06T15:42:39;15.80;99.90
10175;DHT22;18221;38.704;0.152;2024-03-06T15:45:10;15.80;99.90
10175;DHT22;18221;38.704;0.152;2024-03-06T15:47:38;15.80;99.90
10175;DHT22;18221;38.704;0.152;2024-03-06T15:50:10;15.70;99.90
10175;DHT22;18221;38.704;0.152;2024-03-06T15:52:38;15.70;99.90
10175;DHT22;18221;38.704;0.152;2024-03-06T15:55:07;15.70;99.90
10175;DHT22;18221;38.704;0.152;2024-03-06T15:57:35;15.80;99.90
10175;DHT22;18221;38.704;0.152;2024-03-06T16:00:06;15.70;99.90
10175;DHT22;18221;38.704;0.152;2024-03-06T16:02:39;15.60;99.90
10175;DHT22;18221;38.704;0.152;2024-03-06T16:05:09;15.70;99.90